createdAt,value
2023-04-29T00:41:32.058Z,6.20
2023-04-29T00:46:24.231Z,6.18
2023-04-29T00:51:18.241Z,7.47
2023-04-29T00:56:11.357Z,8.85
2023-04-29T01:17:15.580Z,8.57
2023-04-29T01:22:07.313Z,7.80
2023-04-29T01:27:23.869Z,8.13
2023-04-29T01:32:29.807Z,7.07
2023-04-29T01:37:41.589Z,7.90
2023-04-29T02:03:47.325Z,9.02
2023-04-29T02:08:39.101Z,8.10
2023-04-29T02:13:30.770Z,8.80
2023-04-29T02:18:22.460Z,8.48
2023-04-29T02:23:14.162Z,8.68
2023-04-29T02:28:05.877Z,10.07
2023-04-29T02:32:57.744Z,6.93
2023-04-29T02:37:49.816Z,6.50
2023-04-29T02:42:41.570Z,6.47
2023-04-29T02:47:33.279Z,10.13
2023-04-29T02:52:25.000Z,8.38
2023-04-29T02:57:17.033Z,7.18
2023-04-29T03:02:08.876Z,8.73
2023-04-29T03:07:00.563Z,9.68
2023-04-29T03:11:54.337Z,9.30
2023-04-29T03:16:46.089Z,9.63
2023-04-29T03:21:37.846Z,8.73
2023-04-29T03:26:29.528Z,9.13
2023-04-29T03:31:23.124Z,7.47
2023-04-29T03:36:15.290Z,8.40
2023-04-29T03:41:07.508Z,7.20
2023-04-29T03:51:11.215Z,8.27
2023-04-29T03:56:03.236Z,10.93
2023-04-29T04:00:56.462Z,10.50
2023-04-29T04:05:48.444Z,8.63
2023-04-29T04:10:40.189Z,8.32
2023-04-29T04:15:31.883Z,7.95
2023-04-29T04:20:27.573Z,8.13
2023-04-29T04:30:24.945Z,9.47
2023-04-29T04:35:16.771Z,11.05
2023-04-29T04:40:11.181Z,8.53
2023-04-29T04:45:03.558Z,8.47
2023-04-29T04:49:55.450Z,9.03
2023-04-29T04:54:48.831Z,9.63
2023-04-29T04:59:41.944Z,9.70
2023-04-29T05:04:33.681Z,8.50
2023-04-29T05:09:26.779Z,12.35
2023-04-29T05:14:18.578Z,11.52
2023-04-29T05:19:10.357Z,9.82
2023-04-29T05:24:02.029Z,6.88
2023-04-29T05:28:55.313Z,6.13
2023-04-29T05:33:47.051Z,5.10
2023-04-29T05:38:38.864Z,4.22
2023-04-29T05:43:30.574Z,4.63
2023-04-29T05:48:22.326Z,3.85
2023-04-29T05:53:14.023Z,4.68
2023-04-29T05:58:05.738Z,5.97
2023-04-29T06:02:59.022Z,4.82
2023-04-29T06:07:51.939Z,4.22
2023-04-29T06:12:43.758Z,4.30
2023-04-29T06:17:44.803Z,6.38
2023-04-29T06:22:37.641Z,4.35
2023-04-29T06:27:29.784Z,3.90
2023-04-29T06:32:23.624Z,4.07
2023-04-29T06:42:21.982Z,3.28
2023-04-29T06:52:21.659Z,3.22
2023-04-29T06:57:16.684Z,3.45
2023-04-29T07:02:08.641Z,2.75
2023-04-29T07:07:05.555Z,4.13
2023-04-29T07:12:05.663Z,3.78
2023-04-29T07:17:06.403Z,2.63
2023-04-29T07:27:05.732Z,2.85
2023-04-29T07:52:29.538Z,1.38
2023-04-29T08:12:39.528Z,2.67
2023-04-29T08:17:31.502Z,4.75
2023-04-29T08:22:23.309Z,5.07
2023-04-29T08:37:28.939Z,3.30
2023-04-29T08:42:38.354Z,3.42
2023-04-29T08:47:31.912Z,3.15
2023-04-29T09:08:03.171Z,2.13
2023-04-29T09:12:58.424Z,1.98
2023-04-29T09:17:50.619Z,1.92
2023-04-29T09:22:58.352Z,1.45
2023-04-29T09:27:50.582Z,1.65
2023-04-29T09:37:54.073Z,2.33
2023-04-29T09:58:38.102Z,0.50
2023-04-29T10:08:50.366Z,3.35
2023-04-29T10:13:44.205Z,1.48
2023-04-29T11:07:00.338Z,0.85
2023-04-29T11:12:05.524Z,1.20
2023-04-29T11:59:18.245Z,1.80
2023-04-29T12:14:31.404Z,0.50
2023-04-29T12:19:24.652Z,0.57
2023-04-29T12:24:18.241Z,0.70
2023-04-29T12:49:48.181Z,1.25
2023-04-29T12:54:44.136Z,0.80
2023-04-29T12:59:36.125Z,0.90
2023-04-29T13:04:29.208Z,2.85
2023-04-29T13:35:05.238Z,0.88
2023-04-29T13:39:57.719Z,0.70
2023-04-29T14:05:47.300Z,1.00
2023-04-29T14:10:39.050Z,0.40
2023-04-29T14:15:31.135Z,2.40
2023-04-29T14:25:37.544Z,0.55
2023-04-29T15:32:22.342Z,2.75
2023-04-29T15:37:14.079Z,0.57
2023-04-29T16:03:30.486Z,1.15
2023-04-29T16:34:11.639Z,2.20
2023-04-29T16:39:04.641Z,1.33
2023-04-29T16:54:13.559Z,0.98
2023-04-29T16:59:05.803Z,1.17
2023-04-29T17:04:07.055Z,1.05
2023-04-29T17:09:01.755Z,1.70
2023-04-29T17:13:56.388Z,1.23
2023-04-29T17:23:55.924Z,1.10
2023-04-29T17:34:14.156Z,0.93
2023-04-29T17:44:13.768Z,1.60
2023-04-29T17:49:06.658Z,0.90
2023-04-29T17:53:59.914Z,2.85
2023-04-29T18:19:20.210Z,1.58
2023-04-29T18:34:24.818Z,2.72
2023-04-29T18:39:18.785Z,1.70
2023-04-29T19:45:36.910Z,5.47
2023-04-29T19:50:42.524Z,3.90
2023-04-29T20:00:41.110Z,4.10
2023-04-29T20:05:36.393Z,5.53
2023-04-29T20:10:30.110Z,3.97
2023-04-29T20:15:27.697Z,4.03
2023-04-29T20:20:22.352Z,3.65
2023-04-29T20:25:14.897Z,4.18
2023-04-29T20:35:22.160Z,5.72
2023-04-29T20:40:15.581Z,7.50
2023-04-29T20:45:08.971Z,4.63
2023-04-29T20:50:02.111Z,4.03
2023-04-29T20:54:54.195Z,4.17
2023-04-29T21:05:00.904Z,4.10
2023-04-29T21:09:54.757Z,5.87
2023-04-29T21:14:47.525Z,4.83
2023-04-29T21:19:39.851Z,5.83
2023-04-29T21:24:32.079Z,6.67
2023-04-29T21:29:24.940Z,4.80
2023-04-29T21:34:17.032Z,4.77
2023-04-29T21:44:26.602Z,7.55
2023-04-29T21:54:26.886Z,6.25
2023-04-29T21:59:19.798Z,5.87
2023-04-29T22:09:19.835Z,5.57
2023-04-29T22:14:12.691Z,5.82
2023-04-29T22:19:09.623Z,6.23
2023-04-29T22:29:18.192Z,5.33
2023-04-29T22:44:31.540Z,6.05
2023-04-29T22:54:35.577Z,5.03
2023-04-29T22:59:28.314Z,5.37
2023-04-29T23:14:37.178Z,5.60
2023-04-29T23:24:44.536Z,5.57
2023-04-29T23:29:38.351Z,8.20
2023-04-29T23:34:35.921Z,4.60
2023-04-29T23:44:36.798Z,5.53
2023-04-29T23:49:29.318Z,6.93
2023-04-29T23:59:31.833Z,7.40
